createdAt,value
2019-04-25T00:00:34.371Z,11.83
2019-04-25T00:03:03.278Z,11.85
2019-04-25T00:05:32.331Z,11.79
2019-04-25T00:08:01.531Z,11.83
2019-04-25T00:10:31.790Z,11.75
2019-04-25T00:13:01.677Z,11.77
2019-04-25T00:15:31.857Z,11.75
2019-04-25T00:18:02.248Z,11.77
2019-04-25T00:20:32.215Z,11.76
2019-04-25T00:23:11.758Z,11.85
2019-04-25T00:25:45.220Z,11.81
2019-04-25T00:28:11.978Z,11.76
2019-04-25T00:30:42.626Z,11.73
2019-04-25T00:33:11.612Z,11.71
2019-04-25T00:35:42.538Z,11.71
2019-04-25T00:38:12.109Z,11.65
2019-04-25T00:40:42.719Z,11.71
2019-04-25T00:43:11.420Z,11.60
2019-04-25T00:45:41.498Z,11.67
2019-04-25T00:48:10.067Z,11.63
2019-04-25T00:50:38.472Z,11.60
2019-04-25T00:53:06.844Z,11.51
2019-04-25T00:55:35.234Z,11.50
2019-04-25T00:58:07.826Z,11.52
2019-04-25T01:00:37.819Z,11.48
2019-04-25T01:03:07.880Z,11.52
2019-04-25T01:05:36.199Z,11.55
2019-04-25T01:08:04.568Z,11.44
2019-04-25T01:10:33.044Z,11.45
2019-04-25T01:13:03.059Z,11.37
2019-04-25T01:15:31.598Z,11.36
2019-04-25T01:18:01.182Z,11.42
2019-04-25T01:20:29.741Z,11.32
2019-04-25T01:23:00.803Z,11.36
2019-04-25T01:25:38.620Z,11.38
2019-04-25T01:27:58.713Z,11.32
2019-04-25T01:30:27.991Z,11.19
2019-04-25T01:32:56.749Z,11.16
2019-04-25T01:35:26.776Z,11.15
2019-04-25T01:38:13.714Z,11.14
2019-04-25T01:41:03.396Z,11.18
2019-04-25T01:43:52.769Z,11.14
2019-04-25T01:46:19.838Z,11.03
2019-04-25T01:48:48.610Z,10.92
2019-04-25T01:51:17.266Z,10.80
2019-04-25T01:53:45.627Z,10.69
2019-04-25T01:56:14.472Z,10.62
2019-04-25T01:58:43.800Z,10.64
2019-04-25T02:01:14.346Z,10.59
2019-04-25T02:03:44.230Z,10.50
2019-04-25T02:06:13.675Z,10.46
2019-04-25T02:08:44.172Z,10.33
2019-04-25T02:11:16.660Z,10.28
2019-04-25T02:13:45.227Z,10.23
2019-04-25T02:16:14.202Z,10.21
2019-04-25T02:18:43.571Z,10.21
2019-04-25T02:21:13.625Z,10.30
2019-04-25T02:23:44.045Z,10.29
2019-04-25T02:26:16.710Z,10.26
2019-04-25T02:28:43.705Z,10.27
2019-04-25T02:31:18.011Z,10.27
2019-04-25T02:33:44.227Z,10.20
2019-04-25T02:36:15.057Z,10.21
2019-04-25T02:38:44.242Z,10.28
2019-04-25T02:41:14.761Z,10.30
2019-04-25T02:43:45.030Z,10.29
2019-04-25T02:46:26.701Z,10.28
2019-04-25T02:49:06.698Z,10.22
2019-04-25T02:51:35.022Z,10.11
2019-04-25T02:54:06.737Z,10.00
2019-04-25T02:56:38.236Z,10.02
2019-04-25T02:59:06.989Z,10.02
2019-04-25T03:01:34.312Z,10.08
2019-04-25T03:04:04.931Z,10.16
2019-04-25T03:06:35.029Z,10.16
2019-04-25T03:09:05.671Z,10.07
2019-04-25T03:11:34.716Z,10.11
2019-04-25T03:14:06.348Z,10.03
2019-04-25T03:16:34.761Z,10.07
2019-04-25T03:19:16.978Z,10.03
2019-04-25T03:21:47.863Z,9.97
2019-04-25T03:24:16.894Z,10.02
2019-04-25T03:26:45.741Z,9.94
2019-04-25T03:29:14.225Z,10.00
2019-04-25T03:31:45.000Z,9.95
2019-04-25T03:34:17.234Z,9.97
2019-04-25T03:36:43.841Z,9.97
2019-04-25T03:39:14.448Z,10.07
2019-04-25T03:41:43.864Z,9.99
2019-04-25T03:44:13.945Z,10.07
2019-04-25T03:46:43.798Z,10.07
2019-04-25T03:49:13.559Z,10.12
2019-04-25T03:51:43.869Z,10.06
2019-04-25T03:54:14.306Z,10.05
2019-04-25T03:56:53.233Z,9.95
2019-04-25T03:59:14.664Z,9.95
2019-04-25T04:01:45.404Z,9.99
2019-04-25T04:04:16.312Z,9.82
2019-04-25T04:06:44.159Z,9.77
2019-04-25T04:09:14.255Z,9.76
2019-04-25T04:11:43.531Z,9.60
2019-04-25T04:14:12.973Z,9.19
2019-04-25T04:16:44.360Z,9.01
2019-04-25T04:19:14.734Z,8.87
2019-04-25T04:21:53.123Z,8.77
2019-04-25T04:24:26.142Z,8.66
2019-04-25T04:27:11.105Z,8.57
2019-04-25T04:29:40.499Z,8.55
2019-04-25T04:32:08.856Z,8.68
2019-04-25T04:34:37.314Z,8.72
2019-04-25T04:37:05.718Z,8.88
2019-04-25T04:39:34.397Z,8.92
2019-04-25T04:42:03.831Z,9.02
2019-04-25T04:44:34.195Z,9.04
2019-04-25T04:47:03.978Z,9.18
2019-04-25T04:49:34.047Z,9.28
2019-04-25T04:52:04.523Z,9.50
2019-04-25T04:54:34.421Z,9.64
2019-04-25T04:57:16.686Z,9.73
2019-04-25T04:59:33.826Z,9.82
2019-04-25T05:02:06.836Z,9.87
2019-04-25T05:04:37.645Z,9.91
2019-04-25T05:07:15.033Z,9.96
2019-04-25T05:09:43.605Z,10.06
2019-04-25T05:12:13.055Z,10.07
2019-04-25T05:14:41.707Z,10.20
2019-04-25T05:17:10.242Z,10.32
2019-04-25T05:19:38.696Z,10.48
2019-04-25T05:22:07.237Z,10.68
2019-04-25T05:24:35.709Z,10.85
2019-04-25T05:27:04.254Z,11.03
2019-04-25T05:29:33.975Z,11.27
2019-04-25T05:32:04.139Z,11.55
2019-04-25T05:34:34.226Z,11.92
2019-04-25T05:37:03.859Z,12.46
2019-04-25T05:39:33.436Z,13.54
2019-04-25T05:42:07.740Z,14.83
2019-04-25T05:44:36.199Z,16.28
2019-04-25T05:47:04.919Z,17.84
2019-04-25T05:49:34.291Z,19.08
2019-04-25T05:52:04.010Z,20.29
2019-04-25T05:54:33.994Z,21.34
2019-04-25T05:57:03.730Z,22.21
2019-04-25T05:59:33.532Z,22.90
2019-04-25T06:02:03.834Z,23.31
2019-04-25T06:04:33.524Z,23.94
2019-04-25T06:07:02.036Z,24.52
2019-04-25T06:09:38.273Z,24.93
2019-04-25T06:12:14.439Z,25.26
2019-04-25T06:14:43.394Z,25.99
2019-04-25T06:17:13.751Z,26.37
2019-04-25T06:19:43.690Z,26.75
2019-04-25T06:22:19.952Z,26.71
2019-04-25T06:24:50.949Z,26.58
2019-04-25T06:27:20.905Z,26.53
2019-04-25T06:29:58.167Z,26.93
2019-04-25T06:32:21.523Z,27.11
2019-04-25T06:34:50.058Z,26.37
2019-04-25T06:37:18.428Z,25.60
2019-04-25T06:39:46.834Z,24.59
2019-04-25T06:42:15.204Z,23.84
2019-04-25T06:44:54.250Z,23.10
2019-04-25T06:47:30.080Z,22.61
2019-04-25T06:49:58.416Z,22.23
2019-04-25T06:52:30.023Z,21.83
2019-04-25T06:54:57.099Z,21.16
2019-04-25T06:57:26.975Z,20.35
2019-04-25T06:59:55.464Z,19.92
2019-04-25T07:02:25.388Z,19.62
2019-04-25T07:04:54.093Z,19.54
2019-04-25T07:07:24.543Z,19.46
2019-04-25T07:09:53.511Z,19.35
2019-04-25T07:12:26.267Z,19.41
2019-04-25T07:14:53.933Z,19.36
2019-04-25T07:17:24.094Z,19.37
2019-04-25T07:19:54.141Z,19.62
2019-04-25T07:22:23.968Z,19.73
2019-04-25T07:24:53.753Z,19.91
2019-04-25T07:27:26.650Z,20.17
2019-04-25T07:30:26.700Z,20.46
2019-04-25T07:32:48.904Z,20.70
2019-04-25T07:35:17.451Z,20.65
2019-04-25T07:37:45.840Z,20.62
2019-04-25T07:40:14.856Z,20.62
2019-04-25T07:42:43.914Z,20.85
2019-04-25T07:45:14.110Z,21.03
2019-04-25T07:47:44.142Z,21.03
2019-04-25T07:50:15.090Z,20.82
2019-04-25T07:52:44.324Z,20.88
2019-04-25T07:55:13.775Z,21.24
2019-04-25T07:57:44.178Z,21.30
2019-04-25T08:00:14.313Z,21.23
2019-04-25T08:02:43.575Z,21.23
2019-04-25T08:05:14.475Z,21.26
2019-04-25T08:07:43.672Z,21.45
2019-04-25T08:10:14.009Z,21.63
2019-04-25T08:12:44.400Z,21.84
2019-04-25T08:15:31.796Z,22.03
2019-04-25T08:18:04.540Z,22.22
2019-04-25T08:20:34.739Z,22.21
2019-04-25T08:23:04.376Z,22.22
2019-04-25T08:25:33.503Z,22.47
2019-04-25T08:28:03.852Z,22.62
2019-04-25T08:30:34.177Z,22.78
2019-04-25T08:33:03.976Z,22.92
2019-04-25T08:35:34.202Z,23.22
2019-04-25T08:38:03.707Z,23.46
2019-04-25T08:40:35.815Z,23.70
2019-04-25T08:43:03.518Z,23.98
2019-04-25T08:45:33.555Z,24.21
2019-04-25T08:48:03.640Z,24.31
2019-04-25T08:50:41.058Z,24.34
2019-04-25T08:53:09.821Z,24.47
2019-04-25T08:55:44.447Z,24.57
2019-04-25T08:58:14.324Z,24.51
2019-04-25T09:00:58.062Z,24.57
2019-04-25T09:03:18.872Z,24.60
2019-04-25T09:05:49.084Z,24.80
2019-04-25T09:08:17.453Z,24.90
2019-04-25T09:10:45.843Z,25.10
2019-04-25T09:13:14.161Z,25.31
2019-04-25T09:15:45.449Z,25.27
2019-04-25T09:18:14.103Z,25.54
2019-04-25T09:20:43.871Z,25.69
2019-04-25T09:23:13.628Z,26.26
2019-04-25T09:25:44.454Z,26.16
2019-04-25T09:28:13.789Z,26.21
2019-04-25T09:30:44.470Z,26.61
2019-04-25T09:33:13.362Z,26.89
2019-04-25T09:35:41.994Z,26.91
2019-04-25T09:38:10.524Z,26.99
2019-04-25T09:40:39.525Z,27.30
2019-04-25T09:43:07.846Z,28.24
2019-04-25T09:45:40.397Z,28.53
2019-04-25T09:48:23.172Z,28.52
2019-04-25T09:51:03.569Z,28.87
2019-04-25T09:53:34.846Z,29.03
2019-04-25T09:56:17.554Z,29.75
2019-04-25T09:58:53.974Z,30.02
2019-04-25T10:01:24.014Z,29.86
2019-04-25T10:03:54.271Z,29.48
2019-04-25T10:06:23.390Z,29.13
2019-04-25T10:08:51.905Z,28.90
2019-04-25T10:11:23.622Z,28.99
2019-04-25T10:14:06.879Z,28.81
2019-04-25T10:16:35.395Z,28.90
2019-04-25T10:19:03.935Z,29.03
2019-04-25T10:21:32.354Z,29.30
2019-04-25T10:24:01.063Z,29.18
2019-04-25T10:26:29.595Z,29.18
2019-04-25T10:28:57.958Z,29.35
2019-04-25T10:31:26.603Z,29.63
2019-04-25T10:33:55.243Z,29.75
2019-04-25T10:36:24.699Z,29.79
2019-04-25T10:39:04.076Z,29.30
2019-04-25T10:41:24.483Z,28.74
2019-04-25T10:43:54.660Z,28.95
2019-04-25T10:46:24.416Z,28.73
2019-04-25T10:48:55.947Z,28.96
2019-04-25T10:51:23.966Z,29.01
2019-04-25T10:53:53.872Z,28.99
2019-04-25T10:56:24.238Z,28.38
2019-04-25T10:58:54.783Z,28.24
2019-04-25T11:01:24.410Z,27.98
2019-04-25T11:03:55.707Z,27.82
2019-04-25T11:06:25.766Z,27.73
2019-04-25T11:08:56.446Z,27.79
2019-04-25T11:11:24.502Z,28.01
2019-04-25T11:13:55.651Z,28.03
2019-04-25T11:16:24.302Z,27.60
2019-04-25T11:18:54.770Z,27.38
2019-04-25T11:21:24.250Z,27.57
2019-04-25T11:23:55.055Z,27.72
2019-04-25T11:26:23.344Z,27.63
2019-04-25T11:28:51.800Z,27.38
2019-04-25T11:31:23.382Z,27.41
2019-04-25T11:33:52.001Z,27.41
2019-04-25T11:36:20.393Z,27.47
2019-04-25T11:39:06.762Z,27.56
2019-04-25T11:41:35.586Z,27.64
2019-04-25T11:44:04.275Z,27.90
2019-04-25T11:46:33.316Z,27.86
2019-04-25T11:49:01.819Z,28.02
2019-04-25T11:51:30.113Z,28.21
2019-04-25T11:53:58.525Z,28.47
2019-04-25T11:56:26.920Z,28.09
2019-04-25T11:58:55.541Z,28.10
2019-04-25T12:01:24.444Z,28.13
2019-04-25T12:03:52.773Z,28.33
2019-04-25T12:06:21.158Z,28.88
2019-04-25T12:08:49.732Z,28.93
2019-04-25T12:11:18.019Z,28.58
2019-04-25T12:13:47.820Z,28.59
2019-04-25T12:16:17.277Z,28.82
2019-04-25T12:18:48.062Z,29.29
2019-04-25T12:21:15.999Z,29.22
2019-04-25T12:23:46.413Z,29.23
2019-04-25T12:26:14.583Z,29.45
2019-04-25T12:28:42.970Z,29.82
2019-04-25T12:31:13.266Z,29.68
2019-04-25T12:33:41.616Z,29.55
2019-04-25T12:36:10.010Z,29.44
2019-04-25T12:38:38.554Z,29.30
2019-04-25T12:41:06.976Z,29.36
2019-04-25T12:43:37.156Z,29.37
2019-04-25T12:46:07.224Z,29.31
2019-04-25T12:48:35.690Z,29.14
2019-04-25T12:51:04.436Z,29.18
2019-04-25T12:53:33.450Z,28.88
2019-04-25T12:56:04.383Z,28.55
2019-04-25T12:58:33.454Z,28.31
2019-04-25T13:01:01.979Z,28.38
2019-04-25T13:03:30.514Z,28.28
2019-04-25T13:05:59.048Z,28.14
2019-04-25T13:08:27.817Z,27.98
2019-04-25T13:11:07.557Z,27.90
2019-04-25T13:13:26.182Z,27.90
2019-04-25T13:15:54.703Z,27.98
2019-04-25T13:18:23.111Z,27.73
2019-04-25T13:20:51.541Z,27.42
2019-04-25T13:23:20.282Z,27.26
2019-04-25T13:25:49.252Z,27.45
2019-04-25T13:28:19.263Z,27.82
2019-04-25T13:31:01.510Z,27.90
2019-04-25T13:33:36.064Z,27.91
2019-04-25T13:36:06.478Z,28.03
2019-04-25T13:38:34.867Z,28.12
2019-04-25T13:41:04.083Z,27.87
2019-04-25T13:43:32.735Z,27.76
2019-04-25T13:46:01.125Z,27.77
2019-04-25T13:48:29.512Z,27.84
2019-04-25T13:50:58.000Z,27.97
2019-04-25T13:53:27.284Z,28.18
2019-04-25T13:55:55.841Z,28.07
2019-04-25T13:58:25.505Z,28.04
2019-04-25T14:00:53.869Z,28.01
2019-04-25T14:03:22.968Z,27.82
2019-04-25T14:05:53.956Z,27.86
2019-04-25T14:08:24.415Z,27.78
2019-04-25T14:10:54.205Z,27.63
2019-04-25T14:13:25.132Z,27.50
2019-04-25T14:15:54.721Z,27.54
2019-04-25T14:18:31.495Z,27.72
2019-04-25T14:21:10.113Z,28.09
2019-04-25T14:23:38.734Z,28.31
2019-04-25T14:26:07.249Z,28.73
2019-04-25T14:28:35.920Z,29.18
2019-04-25T14:31:04.724Z,29.58
2019-04-25T14:33:34.875Z,29.55
2019-04-25T14:36:03.247Z,29.33
2019-04-25T14:38:31.661Z,29.27
2019-04-25T14:41:00.295Z,29.31
2019-04-25T14:43:29.061Z,29.29
2019-04-25T14:45:58.168Z,29.12
2019-04-25T14:48:27.222Z,29.09
2019-04-25T14:50:55.649Z,28.78
2019-04-25T14:53:24.406Z,28.54
2019-04-25T14:56:09.614Z,28.25
2019-04-25T14:58:39.689Z,28.14
2019-04-25T15:01:08.306Z,28.13
2019-04-25T15:03:36.875Z,28.17
2019-04-25T15:06:06.109Z,28.17
2019-04-25T15:08:34.605Z,28.19
2019-04-25T15:11:03.081Z,28.16
2019-04-25T15:13:31.867Z,28.13
2019-04-25T15:16:00.493Z,28.17
2019-04-25T15:18:28.874Z,28.02
2019-04-25T15:20:57.250Z,27.88
2019-04-25T15:23:25.685Z,27.95
2019-04-25T15:25:54.065Z,28.05
2019-04-25T15:28:24.379Z,28.16
2019-04-25T15:30:53.315Z,28.17
2019-04-25T15:33:21.997Z,27.99
2019-04-25T15:35:55.007Z,27.74
2019-04-25T15:38:25.019Z,27.67
2019-04-25T15:40:55.145Z,27.63
2019-04-25T15:43:31.422Z,27.63
2019-04-25T15:46:04.143Z,27.67
2019-04-25T15:48:33.230Z,27.56
2019-04-25T15:51:01.841Z,27.39
2019-04-25T15:53:30.642Z,27.20
2019-04-25T15:55:59.546Z,27.20
2019-04-25T15:58:28.080Z,27.14
2019-04-25T16:00:56.839Z,27.10
2019-04-25T16:03:25.152Z,26.99
2019-04-25T16:05:53.776Z,26.97
2019-04-25T16:08:22.268Z,26.92
2019-04-25T16:10:50.685Z,27.01
2019-04-25T16:13:19.226Z,26.80
2019-04-25T16:15:47.680Z,26.75
2019-04-25T16:18:16.316Z,26.89
2019-04-25T16:20:44.772Z,26.91
2019-04-25T16:23:13.504Z,26.93
2019-04-25T16:25:41.876Z,26.75
2019-04-25T16:28:10.572Z,26.73
2019-04-25T16:30:40.818Z,26.74
2019-04-25T16:33:09.953Z,26.65
2019-04-25T16:35:38.694Z,26.64
2019-04-25T16:38:07.294Z,26.65
2019-04-25T16:40:36.233Z,26.62
2019-04-25T16:43:07.011Z,26.63
2019-04-25T16:45:37.760Z,26.58
2019-04-25T16:48:06.454Z,26.59
2019-04-25T16:50:35.108Z,26.58
2019-04-25T16:53:03.485Z,26.52
2019-04-25T16:55:32.512Z,26.36
2019-04-25T16:58:01.056Z,26.19
2019-04-25T17:00:40.836Z,26.12
2019-04-25T17:03:09.490Z,26.02
2019-04-25T17:05:39.343Z,25.85
2019-04-25T17:08:08.161Z,25.84
2019-04-25T17:10:36.918Z,25.78
2019-04-25T17:13:06.734Z,25.69
2019-04-25T17:15:52.100Z,25.60
2019-04-25T17:18:22.080Z,25.57
2019-04-25T17:21:01.364Z,25.52
2019-04-25T17:23:30.104Z,25.48
2019-04-25T17:25:59.328Z,25.38
2019-04-25T17:28:30.335Z,25.28
2019-04-25T17:31:01.588Z,25.24
2019-04-25T17:33:32.317Z,25.14
2019-04-25T17:36:02.626Z,25.02
2019-04-25T17:38:36.158Z,24.97
2019-04-25T17:41:04.627Z,24.90
2019-04-25T17:43:34.238Z,24.76
2019-04-25T17:46:04.728Z,24.73
2019-04-25T17:48:34.076Z,24.74
2019-04-25T17:51:02.671Z,24.70
2019-04-25T17:53:32.936Z,24.70
2019-04-25T17:56:01.446Z,24.72
2019-04-25T17:58:29.806Z,24.72
2019-04-25T18:00:58.638Z,24.75
2019-04-25T18:03:28.919Z,24.77
2019-04-25T18:05:57.568Z,24.75
2019-04-25T18:08:26.278Z,24.67
2019-04-25T18:10:54.639Z,24.65
2019-04-25T18:13:23.184Z,24.60
2019-04-25T18:15:59.211Z,24.58
2019-04-25T18:18:45.670Z,24.53
2019-04-25T18:21:14.166Z,24.43
2019-04-25T18:24:00.332Z,24.28
2019-04-25T18:26:33.231Z,24.23
2019-04-25T18:29:14.595Z,24.14
2019-04-25T18:31:43.856Z,24.10
2019-04-25T18:34:13.966Z,24.00
2019-04-25T18:36:55.908Z,23.97
2019-04-25T18:39:25.905Z,23.98
2019-04-25T18:41:55.684Z,23.96
2019-04-25T18:44:24.162Z,23.94
2019-04-25T18:46:52.665Z,23.83
2019-04-25T18:49:21.053Z,23.68
2019-04-25T18:51:57.524Z,23.54
2019-04-25T18:54:25.127Z,23.38
2019-04-25T18:57:01.066Z,23.18
2019-04-25T18:59:48.219Z,22.95
2019-04-25T19:02:33.901Z,22.83
2019-04-25T19:05:03.965Z,22.48
2019-04-25T19:07:32.437Z,22.14
2019-04-25T19:10:00.914Z,21.89
2019-04-25T19:12:29.302Z,21.74
2019-04-25T19:14:57.976Z,21.39
2019-04-25T19:17:26.400Z,20.95
2019-04-25T19:19:55.032Z,20.89
2019-04-25T19:22:23.667Z,20.70
2019-04-25T19:24:52.250Z,20.47
2019-04-25T19:27:24.047Z,20.36
2019-04-25T19:29:52.533Z,20.20
2019-04-25T19:32:21.145Z,20.10
2019-04-25T19:34:49.525Z,20.09
2019-04-25T19:37:17.966Z,19.84
2019-04-25T19:40:04.317Z,19.67
2019-04-25T19:42:34.402Z,19.59
2019-04-25T19:45:03.014Z,19.47
2019-04-25T19:47:31.420Z,19.27
2019-04-25T19:49:59.976Z,19.01
2019-04-25T19:52:29.695Z,19.04
2019-04-25T19:54:58.107Z,18.94
2019-04-25T19:57:26.888Z,18.85
2019-04-25T19:59:56.738Z,18.82
2019-04-25T20:02:29.305Z,18.72
2019-04-25T20:04:59.322Z,18.68
2019-04-25T20:07:37.953Z,18.57
2019-04-25T20:10:09.148Z,18.23
2019-04-25T20:12:45.396Z,17.99
2019-04-25T20:15:15.430Z,17.84
2019-04-25T20:17:44.838Z,17.58
2019-04-25T20:20:14.150Z,17.62
2019-04-25T20:22:42.526Z,17.55
2019-04-25T20:25:11.233Z,17.56
2019-04-25T20:27:39.606Z,17.57
2019-04-25T20:30:08.451Z,17.61
2019-04-25T20:32:36.829Z,17.62
2019-04-25T20:35:05.450Z,17.60
2019-04-25T20:37:33.735Z,17.41
2019-04-25T20:40:03.733Z,17.07
2019-04-25T20:42:32.009Z,17.03
2019-04-25T20:45:00.362Z,17.03
2019-04-25T20:47:28.751Z,16.88
2019-04-25T20:49:57.793Z,16.90
2019-04-25T20:52:27.890Z,16.80
2019-04-25T20:54:56.975Z,16.79
2019-04-25T20:57:25.390Z,16.77
2019-04-25T20:59:53.923Z,16.75
2019-04-25T21:02:22.179Z,16.57
2019-04-25T21:04:50.606Z,16.46
2019-04-25T21:07:19.034Z,16.59
2019-04-25T21:09:47.445Z,16.60
2019-04-25T21:12:15.889Z,16.65
2019-04-25T21:14:45.939Z,16.66
2019-04-25T21:17:18.831Z,16.62
2019-04-25T21:19:54.796Z,16.57
2019-04-25T21:22:23.073Z,16.52
2019-04-25T21:24:51.870Z,16.48
2019-04-25T21:27:20.536Z,16.56
2019-04-25T21:29:49.020Z,16.56
2019-04-25T21:32:19.217Z,16.39
2019-04-25T21:34:47.546Z,16.36
2019-04-25T21:37:16.386Z,16.23
2019-04-25T21:39:47.754Z,16.23
2019-04-25T21:42:21.344Z,16.11
2019-04-25T21:44:50.141Z,16.06
2019-04-25T21:47:18.597Z,16.03
2019-04-25T21:49:47.350Z,16.07
2019-04-25T21:52:15.760Z,16.08
2019-04-25T21:54:44.504Z,16.02
2019-04-25T21:57:13.131Z,15.92
2019-04-25T21:59:41.717Z,15.87
2019-04-25T22:02:10.097Z,15.93
2019-04-25T22:04:41.241Z,15.92
2019-04-25T22:07:08.865Z,15.76
2019-04-25T22:09:37.525Z,15.81
2019-04-25T22:12:08.171Z,15.66
2019-04-25T22:14:36.547Z,15.73
2019-04-25T22:17:06.000Z,15.72
2019-04-25T22:19:35.013Z,15.63
2019-04-25T22:22:04.696Z,15.52
2019-04-25T22:24:33.173Z,15.49
2019-04-25T22:27:03.360Z,15.54
2019-04-25T22:29:33.330Z,15.50
2019-04-25T22:32:03.474Z,15.32
2019-04-25T22:34:33.855Z,15.35
2019-04-25T22:37:02.334Z,15.31
2019-04-25T22:39:30.939Z,15.22
2019-04-25T22:41:59.756Z,15.20
2019-04-25T22:44:29.372Z,15.10
2019-04-25T22:46:58.074Z,15.08
2019-04-25T22:49:26.443Z,15.03
2019-04-25T22:51:54.800Z,15.02
2019-04-25T22:54:23.875Z,15.01
2019-04-25T22:56:52.276Z,15.07
2019-04-25T22:59:20.944Z,15.01
2019-04-25T23:01:51.037Z,14.88
2019-04-25T23:04:36.291Z,14.90
2019-04-25T23:07:05.929Z,14.77
2019-04-25T23:09:36.347Z,14.75
2019-04-25T23:12:06.659Z,14.70
2019-04-25T23:14:35.462Z,14.75
2019-04-25T23:17:04.990Z,14.75
2019-04-25T23:19:33.337Z,14.58
2019-04-25T23:22:01.708Z,14.50
2019-04-25T23:24:31.675Z,14.37
2019-04-25T23:27:14.377Z,14.31
2019-04-25T23:29:42.794Z,14.22
2019-04-25T23:32:12.432Z,14.24
2019-04-25T23:34:40.837Z,14.26
2019-04-25T23:37:09.308Z,14.27
2019-04-25T23:39:37.985Z,14.27
2019-04-25T23:42:07.294Z,14.22
2019-04-25T23:44:35.903Z,14.29
2019-04-25T23:47:04.269Z,14.35
2019-04-25T23:49:32.597Z,14.41
2019-04-25T23:52:01.125Z,14.38
2019-04-25T23:54:29.521Z,14.30
2019-04-25T23:56:58.105Z,14.20
2019-04-25T23:59:26.582Z,14.18
